Time;durP1;ratioP1;P1;durP2;ratioP2;P2;SDS_P1;SDS_P2;PMS_P1;PMS_P2;Temp;Humidity;BMP_temperature;BMP_pressure;BME280_temperature;BME280_humidity;BME280_pressure;Samples;Min_cycle;Max_cycle;Signal;HPM_P1;HPM_P2
2022/09/13 00:01:11;;;;;;;4.70;4.25;;;;;;;15.25;88.72;98149.25;4142672;28;20237;-48
2022/09/13 00:03:12;;;;;;;3.05;2.47;;;;;;;15.24;88.81;98153.06;4162305;28;20279;-47
2022/09/13 00:05:14;;;;;;;4.45;2.40;;;;;;;15.21;89.22;98148.16;4169972;28;20197;-49
2022/09/13 00:07:16;;;;;;;3.58;3.08;;;;;;;15.20;89.39;98146.50;4171397;28;20241;-48
2022/09/13 00:09:17;;;;;;;2.90;2.70;;;;;;;15.09;89.34;98150.47;4152577;28;20213;-48
2022/09/13 00:11:22;;;;;;;2.70;2.50;;;;;;;15.08;89.33;98132.28;4172169;28;20623;-48
2022/09/13 00:13:24;;;;;;;3.22;2.75;;;;;;;15.11;89.16;98137.19;4168661;28;20204;-47
2022/09/13 00:15:26;;;;;;;3.92;2.75;;;;;;;15.10;89.27;98129.25;4157555;28;20723;-48
2022/09/13 00:17:28;;;;;;;3.80;2.63;;;;;;;15.10;89.29;98124.53;4159437;28;20239;-49
2022/09/13 00:19:30;;;;;;;8.32;3.10;;;;;;;15.04;89.36;98131.19;4155361;28;20320;-47
2022/09/13 00:21:31;;;;;;;3.97;2.47;;;;;;;15.05;89.18;98127.34;4185155;28;20699;-47
2022/09/13 00:23:34;;;;;;;3.10;2.80;;;;;;;15.05;89.07;98130.13;4152982;28;20216;-47
2022/09/13 00:25:35;;;;;;;3.25;2.95;;;;;;;15.00;88.98;98143.94;4169173;28;20626;-48
2022/09/13 00:27:37;;;;;;;4.75;3.10;;;;;;;15.00;89.21;98126.56;4160427;28;20212;-47
2022/09/13 00:29:39;;;;;;;5.90;2.83;;;;;;;14.94;89.19;98130.47;4153551;28;20354;-48
2022/09/13 00:31:41;;;;;;;5.53;3.40;;;;;;;14.88;89.24;98132.44;4170578;28;20207;-47
2022/09/13 00:33:42;;;;;;;4.70;3.00;;;;;;;14.84;89.08;98133.31;4156284;28;20205;-47
2022/09/13 00:35:44;;;;;;;3.40;2.55;;;;;;;14.86;88.95;98134.66;4138002;28;20212;-47
2022/09/13 00:37:46;;;;;;;4.60;2.60;;;;;;;14.88;89.06;98137.13;4154165;28;20205;-49
2022/09/13 00:39:48;;;;;;;2.97;2.78;;;;;;;14.86;88.90;98134.66;4171281;28;20284;-48
2022/09/13 00:41:50;;;;;;;4.82;3.22;;;;;;;14.84;88.92;98141.56;4167768;28;20208;-47
2022/09/13 00:43:53;;;;;;;5.13;2.20;;;;;;;14.82;88.78;98144.59;4159300;28;20212;-47
2022/09/13 00:45:55;;;;;;;8.77;3.17;;;;;;;14.77;88.85;98147.38;4161087;28;20214;-47
2022/09/13 00:48:00;;;;;;;3.22;2.28;;;;;;;14.75;88.79;98144.09;4173153;28;20591;-47
2022/09/13 00:50:16;;;;;;;2.70;2.47;;;;;;;14.77;88.64;98150.13;4182703;28;20253;-48
2022/09/13 00:52:19;;;;;;;8.00;3.60;;;;;;;14.76;88.94;98145.75;4150602;28;20200;-47
2022/09/13 00:54:23;;;;;;;3.72;3.20;;;;;;;14.72;89.37;98150.19;4172007;28;20291;-48
2022/09/13 00:56:31;;;;;;;3.13;2.80;;;;;;;14.64;89.27;98147.22;4155937;28;20210;-49
2022/09/13 00:58:38;;;;;;;5.55;2.95;;;;;;;14.57;89.58;98142.00;4153847;28;20686;-47
2022/09/13 01:00:39;;;;;;;4.05;2.95;;;;;;;14.55;89.35;98144.22;4166121;28;20566;-47
2022/09/13 01:02:53;;;;;;;5.57;3.63;;;;;;;14.59;89.04;98156.34;4138243;28;20223;-47
2022/09/13 01:04:55;;;;;;;6.07;2.88;;;;;;;14.56;89.25;98156.88;4182207;28;20231;-47
2022/09/13 01:07:00;;;;;;;3.97;3.05;;;;;;;14.54;89.51;98158.28;4152008;28;20234;-48
2022/09/13 01:09:04;;;;;;;14.85;5.07;;;;;;;14.56;89.20;98156.88;4159805;28;20213;-47
2022/09/13 01:11:10;;;;;;;3.60;3.30;;;;;;;14.58;89.57;98159.38;4154480;28;20300;-47
2022/09/13 01:13:17;;;;;;;6.22;2.72;;;;;;;14.65;89.50;98149.69;4171938;28;20212;-47
2022/09/13 01:15:19;;;;;;;3.47;3.00;;;;;;;13.72;95.37;98138.78;4158719;28;20209;-47
2022/09/13 01:17:21;;;;;;;4.32;4.03;;;;;;;13.81;95.48;98142.59;4162424;28;20209;-47
2022/09/13 01:19:22;;;;;;;3.97;3.65;;;;;;;14.00;94.68;98138.13;4168901;28;20228;-49
2022/09/13 01:21:33;;;;;;;6.13;3.22;;;;;;;14.10;93.96;98136.16;4174855;28;20640;-47
2022/09/13 01:24:09;;;;;;;3.38;3.08;;;;;;;14.17;93.11;98131.19;4184636;28;20672;-48
2022/09/13 01:26:24;;;;;;;6.18;2.95;;;;;;;14.21;92.87;98134.22;4157689;28;20204;-48
2022/09/13 01:28:33;;;;;;;7.68;3.13;;;;;;;14.27;92.34;98131.19;4163814;28;20227;-47
2022/09/13 01:30:37;;;;;;;3.80;3.03;;;;;;;14.26;91.67;98140.53;4188472;28;20295;-48
2022/09/13 01:32:57;;;;;;;6.25;3.13;;;;;;;14.31;91.27;98154.25;4173171;28;20212;-48
2022/09/13 01:35:18;;;;;;;3.00;2.78;;;;;;;14.33;90.87;98163.06;4153914;28;20291;-48
2022/09/13 01:37:42;;;;;;;8.10;3.13;;;;;;;14.34;90.72;98164.72;4155613;28;20206;-47
2022/09/13 01:40:21;;;;;;;7.30;3.83;;;;;;;14.35;90.45;98182.88;4186774;28;20223;-47
2022/09/13 01:42:36;;;;;;;6.50;2.85;;;;;;;14.35;90.52;98193.88;4187162;28;20601;-47
2022/09/13 01:45:04;;;;;;;3.65;3.40;;;;;;;14.27;90.19;98185.38;4154045;28;20201;-48
2022/09/13 01:47:33;;;;;;;3.42;3.13;;;;;;;14.32;90.43;98182.63;4178025;28;20305;-47
2022/09/13 01:49:46;;;;;;;10.00;3.30;;;;;;;14.32;90.47;98174.38;4140721;28;20294;-47
2022/09/13 01:52:07;;;;;;;3.58;3.28;;;;;;;14.29;90.82;98170.25;4188804;28;20290;-47
2022/09/13 01:54:14;;;;;;;3.88;3.58;;;;;;;13.95;92.09;98152.75;4172467;28;20208;-47
2022/09/13 01:56:21;;;;;;;3.58;3.28;;;;;;;13.75;93.07;98158.31;4172874;28;20211;-47
2022/09/13 01:58:32;;;;;;;4.18;2.92;;;;;;;13.82;93.61;98167.09;4155173;28;20228;-47
2022/09/13 02:00:47;;;;;;;3.53;3.33;;;;;;;13.87;93.18;98186.31;4154424;28;20211;-48
2022/09/13 02:02:51;;;;;;;5.25;3.58;;;;;;;13.88;92.69;98192.63;4151490;28;20564;-47
2022/09/13 02:04:58;;;;;;;6.43;3.15;;;;;;;13.91;92.39;98192.91;4163868;28;20724;-47
2022/09/13 02:07:03;;;;;;;6.47;2.97;;;;;;;13.97;91.94;98191.78;4152762;28;20204;-48
2022/09/13 02:09:11;;;;;;;3.88;3.25;;;;;;;14.04;91.53;98186.81;4167947;28;20726;-48
2022/09/13 02:11:16;;;;;;;3.95;3.33;;;;;;;14.07;91.77;98186.28;4170085;28;20303;-47
2022/09/13 02:13:21;;;;;;;3.58;3.28;;;;;;;14.17;91.72;98168.91;4155265;28;20205;-47
2022/09/13 02:15:29;;;;;;;3.53;3.13;;;;;;;13.83;93.26;98170.66;4154894;28;20300;-47
2022/09/13 02:17:38;;;;;;;4.47;3.85;;;;;;;13.33;96.70;98157.84;4163050;28;20213;-49
2022/09/13 02:19:50;;;;;;;4.65;4.00;;;;;;;13.25;97.25;98155.63;4152457;28;20695;-48
2022/09/13 02:21:56;;;;;;;3.95;3.65;;;;;;;12.97;98.31;98164.41;4145224;28;20209;-48
2022/09/13 02:24:13;;;;;;;4.95;3.72;;;;;;;13.23;97.89;98160.56;4169239;28;20303;-47
2022/09/13 02:26:15;;;;;;;3.75;3.45;;;;;;;13.39;96.96;98166.88;4154173;28;20228;-48
2022/09/13 02:28:22;;;;;;;3.50;3.20;;;;;;;13.53;95.98;98168.81;4168338;28;20267;-47
2022/09/13 02:30:25;;;;;;;3.17;2.97;;;;;;;13.66;95.46;98162.72;4171858;28;20200;-48
2022/09/13 02:32:36;;;;;;;3.85;3.45;;;;;;;13.78;94.84;98171.47;4141362;28;20217;-47
2022/09/13 02:35:18;;;;;;;4.22;3.83;;;;;;;13.97;94.39;98169.78;4167845;28;20294;-47
2022/09/13 02:37:22;;;;;;;6.10;3.72;;;;;;;13.80;94.99;98158.28;4170020;28;20211;-47
2022/09/13 02:39:25;;;;;;;5.82;2.60;;;;;;;13.72;95.36;98153.38;4166427;28;20662;-48
2022/09/13 02:41:53;;;;;;;3.72;3.33;;;;;;;13.59;95.92;98145.69;4156795;28;20296;-47
2022/09/13 02:44:08;;;;;;;4.10;3.67;;;;;;;13.10;99.30;98147.38;4164022;28;20245;-48
2022/09/13 02:46:39;;;;;;;4.28;3.40;;;;;;;13.23;98.94;98146.03;4172788;28;20207;-48
2022/09/13 02:48:48;;;;;;;4.95;4.45;;;;;;;13.36;98.12;98145.47;4187003;28;20441;-48
2022/09/13 02:51:02;;;;;;;4.25;3.95;;;;;;;13.05;100.00;98141.09;4153879;28;20202;-47
2022/09/13 02:53:25;;;;;;;4.93;4.63;;;;;;;13.33;99.15;98146.84;4154463;28;20208;-47
2022/09/13 02:55:41;;;;;;;7.55;4.10;;;;;;;13.41;98.90;98132.53;4153772;28;20212;-47
2022/09/13 02:58:09;;;;;;;4.32;4.03;;;;;;;13.49;98.32;98139.41;4154866;28;20208;-46
2022/09/13 03:00:12;;;;;;;3.88;3.58;;;;;;;13.62;97.28;98147.88;4162684;28;20279;-47
2022/09/13 03:02:16;;;;;;;3.85;3.50;;;;;;;13.76;96.42;98146.19;4170807;28;20292;-47
2022/09/13 03:04:18;;;;;;;3.90;3.60;;;;;;;13.84;96.04;98148.38;4172933;28;20235;-48
2022/09/13 03:06:27;;;;;;;4.22;3.38;;;;;;;13.93;95.59;98152.22;4155255;28;20211;-47
2022/09/13 03:08:29;;;;;;;4.15;3.80;;;;;;;14.00;94.85;98160.97;4159617;28;20242;-47
2022/09/13 03:10:43;;;;;;;4.45;3.45;;;;;;;14.07;94.26;98152.41;4158429;28;20323;-47
2022/09/13 03:13:38;;;;;;;3.80;3.50;;;;;;;14.01;93.73;98154.38;4171957;28;20204;-48
2022/09/13 03:15:39;;;;;;;5.00;3.08;;;;;;;13.99;93.55;98145.59;4125891;28;20204;-47
2022/09/13 03:17:51;;;;;;;3.67;3.25;;;;;;;14.02;93.92;98133.16;4167171;28;20708;-47
2022/09/13 03:20:18;;;;;;;3.03;2.83;;;;;;;14.06;93.69;98135.09;4153076;28;20327;-47
2022/09/13 03:22:32;;;;;;;4.28;3.88;;;;;;;13.86;94.80;98140.69;4171773;28;20629;-48
2022/09/13 03:25:00;;;;;;;5.70;4.10;;;;;;;13.85;94.66;98139.03;4153658;28;20212;-48
2022/09/13 03:27:23;;;;;;;5.13;4.65;;;;;;;13.58;96.54;98135.78;4184914;28;20199;-47
2022/09/13 03:29:30;;;;;;;4.40;4.05;;;;;;;13.59;96.26;98131.13;4186341;28;20216;-48
2022/09/13 03:31:55;;;;;;;4.35;3.97;;;;;;;13.58;96.82;98122.03;4177708;28;20215;-47
2022/09/13 03:34:10;;;;;;;4.55;4.15;;;;;;;13.51;97.39;98110.50;4167348;28;20680;-47
2022/09/13 03:36:18;;;;;;;8.88;3.70;;;;;;;13.57;96.63;98105.84;4153686;28;20300;-47
2022/09/13 03:38:26;;;;;;;4.15;3.75;;;;;;;13.42;97.58;98105.84;4144259;28;20225;-47
2022/09/13 03:40:39;;;;;;;5.45;3.92;;;;;;;13.48;97.32;98102.00;4153310;28;20262;-47
2022/09/13 03:42:51;;;;;;;6.95;3.85;;;;;;;13.21;98.70;98099.59;4160756;28;20579;-48
2022/09/13 03:44:55;;;;;;;4.72;3.40;;;;;;;13.20;99.93;98086.97;4145856;28;20238;-47
2022/09/13 03:46:57;;;;;;;6.28;3.50;;;;;;;13.38;98.60;98104.78;4154888;28;20707;-48
2022/09/13 03:49:06;;;;;;;6.40;4.20;;;;;;;13.38;98.31;98102.84;4185007;28;20306;-47
2022/09/13 03:51:09;;;;;;;4.15;3.85;;;;;;;13.48;97.66;98091.84;4157478;28;20623;-48
2022/09/13 03:53:13;;;;;;;9.70;3.80;;;;;;;13.44;98.03;98087.19;4170379;28;20282;-47
2022/09/13 03:55:18;;;;;;;4.57;4.28;;;;;;;13.50;97.75;98081.38;4154068;28;20215;-47
2022/09/13 03:57:21;;;;;;;6.22;4.22;;;;;;;13.29;98.47;98085.28;4155461;28;20292;-47
2022/09/13 03:59:23;;;;;;;4.55;4.25;;;;;;;13.33;98.78;98089.13;4150278;28;20233;-47
2022/09/13 04:01:25;;;;;;;4.00;3.70;;;;;;;13.46;97.97;98094.06;4151713;28;20212;-47
2022/09/13 04:03:27;;;;;;;3.97;3.55;;;;;;;13.52;97.26;98092.94;4152787;28;20707;-46
2022/09/13 04:05:33;;;;;;;5.25;3.97;;;;;;;13.63;96.62;98097.28;4169141;28;20216;-47
2022/09/13 04:07:35;;;;;;;4.10;3.22;;;;;;;13.74;96.49;98090.66;4153205;28;20197;-47
2022/09/13 04:09:37;;;;;;;3.75;3.35;;;;;;;13.79;96.36;98089.81;4154978;28;20224;-47
2022/09/13 04:11:39;;;;;;;12.18;3.28;;;;;;;13.82;96.05;98087.31;4153550;28;20209;-47
2022/09/13 04:13:41;;;;;;;3.58;3.28;;;;;;;13.79;95.45;98085.16;4152965;28;20598;-48
2022/09/13 04:15:43;;;;;;;5.97;2.97;;;;;;;13.80;95.07;98092.28;4153739;28;20212;-48
2022/09/13 04:17:44;;;;;;;4.38;3.40;;;;;;;13.79;95.02;98098.91;4153692;28;20251;-48
2022/09/13 04:19:46;;;;;;;4.70;3.80;;;;;;;13.83;95.14;98107.41;4169672;28;20712;-47
2022/09/13 04:21:48;;;;;;;4.30;3.13;;;;;;;13.84;94.87;98104.34;4153823;28;20201;-47
2022/09/13 04:23:50;;;;;;;3.28;3.08;;;;;;;13.82;94.69;98106.56;4161528;28;20206;-47
2022/09/13 04:25:52;;;;;;;3.92;3.58;;;;;;;13.84;94.69;98120.06;4185766;28;20643;-48
2022/09/13 04:27:55;;;;;;;2.90;2.70;;;;;;;13.90;94.40;98118.94;4154141;28;20300;-48
2022/09/13 04:29:57;;;;;;;3.72;3.42;;;;;;;13.91;94.55;98117.81;4154212;28;20224;-47
2022/09/13 04:31:59;;;;;;;3.97;3.05;;;;;;;13.99;94.24;98123.56;4152562;28;20220;-47
2022/09/13 04:34:01;;;;;;;4.75;3.90;;;;;;;13.89;94.23;98118.09;4152168;28;20227;-47
2022/09/13 04:36:03;;;;;;;3.65;3.35;;;;;;;13.91;94.37;98115.06;4153394;28;20243;-47
2022/09/13 04:38:06;;;;;;;5.20;3.22;;;;;;;13.94;94.46;98115.34;4156717;28;20207;-49
2022/09/13 04:40:08;;;;;;;3.53;3.22;;;;;;;13.92;94.67;98116.72;4157115;28;20232;-47
2022/09/13 04:42:10;;;;;;;3.25;2.95;;;;;;;13.88;94.64;98116.44;4152396;28;20240;-49
2022/09/13 04:44:12;;;;;;;6.75;2.78;;;;;;;13.87;94.46;98125.81;4153079;28;20209;-47
2022/09/13 04:46:13;;;;;;;5.22;3.08;;;;;;;13.77;94.45;98123.09;4161627;28;20568;-47
2022/09/13 04:48:15;;;;;;;3.30;3.08;;;;;;;13.81;94.50;98129.69;4163658;28;20238;-47
2022/09/13 04:50:17;;;;;;;4.65;3.00;;;;;;;13.82;94.72;98138.75;4154331;28;20270;-47
2022/09/13 04:52:18;;;;;;;4.28;3.38;;;;;;;13.84;94.63;98142.06;4156778;28;20284;-48
2022/09/13 04:54:21;;;;;;;8.32;3.10;;;;;;;13.78;94.79;98138.47;4148674;28;20717;-47
2022/09/13 04:56:23;;;;;;;6.57;3.05;;;;;;;13.91;94.61;98134.34;4163115;28;20822;-47
2022/09/13 04:58:25;;;;;;;4.07;3.78;;;;;;;13.89;94.66;98131.84;4156809;28;20323;-49
2022/09/13 05:00:27;;;;;;;4.63;3.38;;;;;;;13.65;96.29;98139.09;4173694;28;20224;-47
2022/09/13 05:02:28;;;;;;;6.28;4.22;;;;;;;13.68;95.88;98133.03;4159570;28;20204;-47
2022/09/13 05:04:30;;;;;;;3.75;3.45;;;;;;;13.74;95.56;98137.41;4156820;28;20212;-47
2022/09/13 05:06:32;;;;;;;4.38;3.80;;;;;;;13.91;95.27;98132.38;4154416;28;20734;-47
2022/09/13 05:08:34;;;;;;;4.57;3.42;;;;;;;13.61;96.37;98127.00;4178398;28;20792;-47
2022/09/13 05:10:36;;;;;;;4.38;3.65;;;;;;;13.45;97.45;98122.66;4172847;28;20208;-47
2022/09/13 05:12:37;;;;;;;5.25;3.65;;;;;;;13.37;98.07;98112.19;4161023;28;20852;-47
2022/09/13 05:14:39;;;;;;;4.50;4.10;;;;;;;13.15;100.00;98110.84;4155524;28;20300;-47
2022/09/13 05:16:41;;;;;;;6.13;4.50;;;;;;;13.27;99.03;98114.97;4160412;28;20209;-47
2022/09/13 05:18:42;;;;;;;4.40;4.10;;;;;;;13.39;98.49;98128.41;4158845;28;20232;-47
2022/09/13 05:20:45;;;;;;;6.22;3.97;;;;;;;13.48;98.04;98138.56;4143245;28;20231;-47
2022/09/13 05:22:47;;;;;;;3.67;3.38;;;;;;;13.57;97.72;98145.13;4157523;28;20223;-47
2022/09/13 05:24:49;;;;;;;14.02;3.45;;;;;;;13.69;97.21;98145.66;4184493;28;20299;-48
2022/09/13 05:26:51;;;;;;;3.15;2.83;;;;;;;13.73;96.85;98146.75;4170064;28;20203;-47
2022/09/13 05:28:52;;;;;;;3.10;2.90;;;;;;;13.77;96.50;98142.34;4186421;28;20253;-49
2022/09/13 05:31:05;;;;;;;4.13;3.58;;;;;;;13.82;96.45;98158.81;4156500;28;20704;-47
2022/09/13 05:33:07;;;;;;;7.00;3.53;;;;;;;13.89;96.13;98140.09;4156013;28;20231;-48
2022/09/13 05:35:08;;;;;;;6.25;3.28;;;;;;;14.00;95.88;98144.47;4157686;28;20662;-48
2022/09/13 05:37:10;;;;;;;3.78;3.47;;;;;;;13.94;96.06;98142.84;4155038;28;20200;-48
2022/09/13 05:39:14;;;;;;;4.82;4.13;;;;;;;13.93;95.66;98149.47;4154223;28;20262;-48
2022/09/13 05:41:35;;;;;;;4.30;3.90;;;;;;;13.97;95.61;98141.47;4147242;28;20559;-50
2022/09/13 05:43:37;;;;;;;3.78;3.00;;;;;;;13.97;95.84;98138.72;4170858;28;20292;-47
2022/09/13 05:45:40;;;;;;;4.18;3.15;;;;;;;13.96;96.00;98135.13;4160396;28;20671;-47
2022/09/13 05:47:41;;;;;;;5.40;3.53;;;;;;;13.97;95.77;98142.28;4156906;28;20706;-48
2022/09/13 05:49:43;;;;;;;7.50;3.60;;;;;;;14.01;95.76;98142.53;4156483;28;20279;-48
2022/09/13 05:52:04;;;;;;;4.25;3.80;;;;;;;14.03;95.79;98140.34;4173286;28;20200;-47
2022/09/13 05:54:07;;;;;;;4.03;3.70;;;;;;;14.08;95.94;98141.13;4154370;28;20212;-47
2022/09/13 05:56:10;;;;;;;3.92;3.25;;;;;;;14.13;95.63;98134.78;4161510;28;20211;-48
2022/09/13 05:58:17;;;;;;;4.55;3.80;;;;;;;14.13;95.33;98132.88;4163134;28;20295;-48
2022/09/13 06:00:18;;;;;;;5.15;3.45;;;;;;;14.17;95.42;98130.38;4161786;28;20320;-47
2022/09/13 06:02:20;;;;;;;17.10;4.47;;;;;;;14.20;95.18;98136.16;4156705;28;20212;-47
2022/09/13 06:04:22;;;;;;;3.58;3.28;;;;;;;14.32;95.17;98131.16;4162283;28;20212;-47
2022/09/13 06:06:24;;;;;;;4.30;3.80;;;;;;;14.24;95.48;98119.91;4171321;28;20213;-47
2022/09/13 06:08:28;;;;;;;4.85;4.35;;;;;;;13.86;96.79;98115.91;4157413;28;20232;-48
2022/09/13 06:10:29;;;;;;;4.80;3.40;;;;;;;13.90;97.59;98119.75;4155701;28;20692;-48
2022/09/13 06:12:31;;;;;;;7.07;4.00;;;;;;;13.98;97.63;98121.91;4176160;28;20239;-48
2022/09/13 06:14:33;;;;;;;4.43;4.03;;;;;;;13.87;98.50;98122.22;4170256;28;20299;-48
2022/09/13 06:16:35;;;;;;;5.43;3.60;;;;;;;13.71;99.67;98124.19;4157780;28;20645;-49
2022/09/13 06:18:37;;;;;;;5.68;4.43;;;;;;;13.56;100.00;98109.69;4170790;28;20252;-49
2022/09/13 06:20:39;;;;;;;5.18;4.75;;;;;;;13.80;100.00;98122.53;4156225;28;20737;-48
2022/09/13 06:22:40;;;;;;;4.30;3.90;;;;;;;13.95;99.54;98133.47;4162964;28;20207;-47
2022/09/13 06:24:42;;;;;;;9.23;3.90;;;;;;;14.11;99.72;98140.56;4158197;28;20317;-48
2022/09/13 06:26:44;;;;;;;8.82;4.47;;;;;;;14.21;99.69;98135.06;4182239;28;20302;-47
2022/09/13 06:28:47;;;;;;;7.85;3.92;;;;;;;14.28;99.39;98121.81;4168589;28;20223;-48
2022/09/13 06:30:49;;;;;;;5.75;3.85;;;;;;;14.38;99.09;98124.50;4162265;28;20201;-47
2022/09/13 06:32:51;;;;;;;6.03;3.83;;;;;;;14.43;99.13;98118.97;4161442;28;20247;-48
2022/09/13 06:34:53;;;;;;;3.72;3.35;;;;;;;14.47;98.33;98124.72;4161727;28;20219;-48
2022/09/13 06:36:55;;;;;;;4.13;3.25;;;;;;;14.39;98.55;98123.41;4184010;28;20196;-48
2022/09/13 06:38:59;;;;;;;4.55;4.25;;;;;;;14.49;98.30;98126.09;4156313;28;20252;-48
2022/09/13 06:41:12;;;;;;;4.43;4.03;;;;;;;14.54;98.79;98137.06;4156429;28;20239;-47
2022/09/13 06:43:14;;;;;;;5.35;4.15;;;;;;;14.59;98.79;98138.97;4160044;28;20694;-47
2022/09/13 06:45:17;;;;;;;6.55;3.72;;;;;;;14.55;98.42;98140.63;4161291;28;20288;-47
2022/09/13 06:47:19;;;;;;;5.38;4.63;;;;;;;14.58;98.00;98135.38;4161879;28;20211;-48
2022/09/13 06:49:20;;;;;;;3.97;3.67;;;;;;;14.57;98.02;98144.75;4171034;28;20224;-47
2022/09/13 06:51:23;;;;;;;4.35;4.05;;;;;;;14.64;98.01;98145.25;4183264;28;20200;-48
2022/09/13 06:53:27;;;;;;;4.97;4.10;;;;;;;14.37;97.88;98142.13;4158905;28;20241;-47
2022/09/13 06:55:29;;;;;;;4.38;3.90;;;;;;;14.33;98.19;98138.31;4153198;28;20227;-47
2022/09/13 06:57:31;;;;;;;5.50;4.65;;;;;;;14.35;98.13;98132.50;4159650;28;20239;-47
2022/09/13 06:59:33;;;;;;;8.68;3.95;;;;;;;14.45;97.43;98141.56;4170157;28;20702;-50
2022/09/13 07:01:42;;;;;;;4.40;4.10;;;;;;;14.54;97.65;98144.50;4159039;28;20219;-47
2022/09/13 07:03:51;;;;;;;6.32;5.80;;;;;;;14.55;97.16;98138.72;4155710;28;20208;-48
2022/09/13 07:05:53;;;;;;;4.63;4.22;;;;;;;14.45;97.71;98137.97;4161732;28;20206;-48
2022/09/13 07:07:54;;;;;;;4.75;4.35;;;;;;;14.56;97.22;98136.81;4151194;28;20219;-49
2022/09/13 07:09:56;;;;;;;7.13;4.70;;;;;;;14.48;97.41;98129.94;4186605;28;20721;-48
2022/09/13 07:11:58;;;;;;;4.80;4.40;;;;;;;14.43;97.56;98124.47;4161447;28;20219;-49
2022/09/13 07:13:59;;;;;;;6.57;4.72;;;;;;;14.40;97.65;98119.53;4161385;28;20206;-47
2022/09/13 07:16:06;;;;;;;5.10;4.63;;;;;;;14.34;99.47;98108.84;4151111;28;20679;-47
2022/09/13 07:18:08;;;;;;;4.78;4.00;;;;;;;14.52;99.22;98111.78;4169371;28;20214;-48
2022/09/13 07:20:10;;;;;;;5.28;4.43;;;;;;;14.61;98.87;98112.81;4168218;28;20327;-49
2022/09/13 07:22:11;;;;;;;6.20;5.47;;;;;;;14.76;99.51;98112.69;4161178;28;20629;-47
2022/09/13 07:24:13;;;;;;;8.50;5.22;;;;;;;14.75;99.20;98116.56;4171317;28;20212;-48
2022/09/13 07:26:15;;;;;;;6.38;4.50;;;;;;;14.75;98.52;98108.28;4160465;28;20916;-48
2022/09/13 07:28:17;;;;;;;6.97;4.88;;;;;;;14.82;97.76;98110.75;4171256;28;20204;-48
2022/09/13 07:30:24;;;;;;;8.00;4.72;;;;;;;14.84;97.48;98098.28;4160037;28;20201;-48
2022/09/13 07:32:26;;;;;;;4.65;4.35;;;;;;;14.94;97.62;98102.91;4152962;28;20314;-47
2022/09/13 07:34:27;;;;;;;4.97;4.55;;;;;;;15.17;96.67;98108.47;4160400;28;20208;-47
2022/09/13 07:36:31;;;;;;;5.38;4.95;;;;;;;15.39;96.96;98117.16;4168518;28;20239;-47
2022/09/13 07:38:37;;;;;;;8.95;4.55;;;;;;;15.44;96.02;98114.31;4158570;28;20239;-47
2022/09/13 07:40:38;;;;;;;8.10;4.00;;;;;;;15.52;96.38;98126.66;4168768;28;20676;-48
2022/09/13 07:42:40;;;;;;;4.15;3.85;;;;;;;15.48;96.28;98131.94;4161344;28;20205;-48
2022/09/13 07:44:42;;;;;;;7.40;5.00;;;;;;;15.54;96.45;98130.78;4155908;28;20597;-47
2022/09/13 07:46:43;;;;;;;5.15;3.88;;;;;;;15.70;95.47;98126.75;4157039;28;20213;-48
2022/09/13 07:48:46;;;;;;;4.70;4.30;;;;;;;15.79;95.32;98130.53;4183333;28;20223;-47
2022/09/13 07:51:01;;;;;;;4.30;3.90;;;;;;;15.93;94.78;98123.19;4172457;28;20228;-48
2022/09/13 07:53:03;;;;;;;4.95;3.83;;;;;;;15.90;93.45;98126.50;4170300;28;20200;-48
2022/09/13 07:55:05;;;;;;;4.60;3.47;;;;;;;15.99;92.87;98122.00;4169727;28;20634;-47
2022/09/13 07:57:06;;;;;;;4.72;3.53;;;;;;;16.00;92.34;98131.94;4152918;28;20201;-47
2022/09/13 07:59:13;;;;;;;4.65;4.22;;;;;;;15.96;93.33;98122.59;4151619;28;20231;-47
2022/09/13 08:01:18;;;;;;;3.78;3.55;;;;;;;16.10;92.96;98118.00;4152559;28;20693;-47
2022/09/13 08:03:19;;;;;;;6.20;4.85;;;;;;;16.13;92.57;98117.41;4176579;28;20200;-47
2022/09/13 08:05:21;;;;;;;4.90;4.28;;;;;;;16.35;92.12;98114.09;4153470;28;20216;-47
2022/09/13 08:07:22;;;;;;;5.05;4.65;;;;;;;16.43;92.06;98110.72;4153952;28;20208;-47
2022/09/13 08:09:25;;;;;;;5.65;3.75;;;;;;;16.52;91.72;98114.44;4169653;28;20229;-47
2022/09/13 08:11:33;;;;;;;4.03;3.55;;;;;;;16.42;92.60;98114.59;4162489;28;20696;-47
2022/09/13 08:13:35;;;;;;;3.63;3.33;;;;;;;16.66;91.30;98121.69;4155603;28;20202;-47
2022/09/13 08:15:36;;;;;;;3.63;3.17;;;;;;;16.81;91.22;98134.44;4156371;28;20223;-47
2022/09/13 08:17:38;;;;;;;4.40;4.10;;;;;;;16.90;90.98;98132.66;4169964;28;20208;-47
2022/09/13 08:19:40;;;;;;;6.55;3.78;;;;;;;16.98;90.84;98141.09;4158435;28;20268;-47
2022/09/13 08:21:44;;;;;;;4.95;3.40;;;;;;;17.03;89.26;98143.78;4170527;28;20712;-47
2022/09/13 08:23:45;;;;;;;3.33;3.13;;;;;;;17.14;89.32;98150.78;4158769;28;20295;-47
2022/09/13 08:25:47;;;;;;;3.60;3.30;;;;;;;17.27;89.58;98138.97;4155347;28;20685;-47
2022/09/13 08:27:49;;;;;;;3.35;2.90;;;;;;;17.41;88.96;98139.84;4169907;28;20620;-47
2022/09/13 08:29:50;;;;;;;3.70;3.40;;;;;;;17.52;87.84;98144.91;4160318;28;20230;-47
2022/09/13 08:31:52;;;;;;;6.38;4.07;;;;;;;17.89;88.75;98144.78;4155401;28;20288;-47
2022/09/13 08:33:54;;;;;;;7.97;3.65;;;;;;;18.17;88.05;98142.81;4154474;28;20985;-47
2022/09/13 08:35:57;;;;;;;4.75;3.72;;;;;;;18.50;87.26;98144.38;4159689;28;20213;-47
2022/09/13 08:37:59;;;;;;;2.90;2.70;;;;;;;18.64;86.17;98136.88;4182739;28;20215;-47
2022/09/13 08:40:01;;;;;;;5.97;3.45;;;;;;;18.73;84.62;98129.47;4154032;28;20230;-47
2022/09/13 08:42:42;;;;;;;3.53;3.22;;;;;;;18.94;83.49;98125.09;4160596;28;20220;-47
2022/09/13 08:44:47;;;;;;;4.03;3.72;;;;;;;18.81;83.23;98109.31;4153829;28;20705;-48
2022/09/13 08:46:49;;;;;;;4.88;4.05;;;;;;;19.08;83.32;98114.75;4163164;28;20291;-47
2022/09/13 08:48:54;;;;;;;4.10;3.63;;;;;;;18.79;85.49;98112.38;4184804;28;20651;-47
2022/09/13 08:51:02;;;;;;;6.50;3.47;;;;;;;19.00;86.54;98121.06;4168526;28;20232;-47
2022/09/13 08:53:25;;;;;;;2.58;2.38;;;;;;;19.30;84.26;98140.59;4187551;28;20209;-47
2022/09/13 08:55:46;;;;;;;8.75;3.00;;;;;;;19.38;83.07;98159.25;4153182;28;20208;-48
2022/09/13 08:58:17;;;;;;;3.13;2.75;;;;;;;19.43;83.20;98161.06;4159678;28;20205;-47
2022/09/13 09:00:32;;;;;;;3.55;3.25;;;;;;;19.37;83.58;98162.38;4169391;28;20311;-47
2022/09/13 09:02:48;;;;;;;4.50;4.03;;;;;;;19.47;83.37;98167.66;4147002;28;20205;-48
2022/09/13 09:05:05;;;;;;;5.57;2.65;;;;;;;19.47;83.42;98173.19;4153517;28;20737;-47
2022/09/13 09:07:31;;;;;;;2.72;2.53;;;;;;;19.51;82.99;98169.47;4152504;28;20291;-47
2022/09/13 09:09:40;;;;;;;7.65;2.85;;;;;;;19.71;82.66;98157.03;4151908;28;20332;-47
2022/09/13 09:11:53;;;;;;;3.00;2.72;;;;;;;19.79;81.74;98147.94;4160160;28;20717;-48
2022/09/13 09:14:14;;;;;;;8.50;3.28;;;;;;;20.03;83.50;98149.19;4158651;28;20232;-47
2022/09/13 09:17:02;;;;;;;6.60;2.33;;;;;;;20.06;81.22;98151.34;4182873;28;20284;-47
2022/09/13 09:19:14;;;;;;;3.72;2.47;;;;;;;20.18;80.98;98164.66;4169074;28;20234;-47
2022/09/13 09:21:17;;;;;;;4.90;2.50;;;;;;;20.23;81.53;98150.59;4143614;28;20221;-47
2022/09/13 09:23:20;;;;;;;2.83;2.63;;;;;;;20.32;81.16;98157.03;4151192;28;20287;-47
2022/09/13 09:25:25;;;;;;;18.70;3.28;;;;;;;20.39;81.52;98160.16;4185812;28;20266;-46
2022/09/13 09:27:29;;;;;;;3.28;2.85;;;;;;;20.43;80.90;98158.38;4166160;28;20385;-47
2022/09/13 09:29:32;;;;;;;3.35;3.08;;;;;;;20.35;82.05;98161.94;4152078;28;20319;-47
2022/09/13 09:32:02;;;;;;;6.68;3.33;;;;;;;20.28;81.23;98162.41;4173986;28;20242;-47
2022/09/13 09:34:44;;;;;;;4.85;2.95;;;;;;;20.15;81.55;98157.78;4155060;28;20307;-48
2022/09/13 09:36:58;;;;;;;5.55;3.13;;;;;;;20.27;80.70;98143.28;4160908;28;20200;-48
2022/09/13 09:39:03;;;;;;;4.22;3.92;;;;;;;20.32;80.25;98132.03;4155196;28;20220;-48
2022/09/13 09:41:27;;;;;;;3.03;2.75;;;;;;;20.31;80.06;98128.41;4172519;28;20727;-47
2022/09/13 09:43:39;;;;;;;4.72;3.15;;;;;;;20.36;80.23;98146.91;4161661;28;20237;-48
2022/09/13 09:45:42;;;;;;;8.18;3.28;;;;;;;20.44;79.17;98155.28;4153771;28;20195;-47
2022/09/13 09:47:45;;;;;;;3.10;2.75;;;;;;;20.49;78.53;98162.63;4162582;28;20216;-47
2022/09/13 09:50:11;;;;;;;3.35;2.78;;;;;;;20.55;76.97;98166.91;4169319;28;20314;-47
2022/09/13 09:52:15;;;;;;;2.33;2.22;;;;;;;20.60;77.20;98169.56;4165120;28;20203;-47
2022/09/13 09:54:17;;;;;;;4.32;3.38;;;;;;;20.70;76.58;98177.59;4154329;28;20251;-47
2022/09/13 09:56:22;;;;;;;3.28;2.97;;;;;;;20.64;77.26;98187.25;4161559;28;20268;-47
2022/09/13 09:58:45;;;;;;;4.53;2.60;;;;;;;20.53;76.92;98191.44;4161833;28;20234;-47